createdAt,value
2017-07-16T00:00:45.546Z,1017.17
2017-07-16T00:01:58.071Z,1017.18
2017-07-16T00:03:10.031Z,1017.15
2017-07-16T00:04:22.683Z,1017.18
2017-07-16T00:05:34.951Z,1017.18
2017-07-16T00:06:47.549Z,1017.18
2017-07-16T00:08:00.099Z,1017.25
2017-07-16T00:09:12.165Z,1017.27
2017-07-16T00:10:24.405Z,1017.25
2017-07-16T00:11:36.657Z,1017.24
2017-07-16T00:12:48.971Z,1017.24
2017-07-16T00:14:01.517Z,1017.24
2017-07-16T00:15:13.217Z,1017.26
2017-07-16T00:16:25.852Z,1017.26
2017-07-16T00:17:38.409Z,1017.24
2017-07-16T00:18:51.229Z,1017.24
2017-07-16T00:20:03.480Z,1017.21
2017-07-16T00:21:15.451Z,1017.22
2017-07-16T00:22:27.441Z,1017.23
2017-07-16T00:23:38.484Z,1017.24
2017-07-16T00:24:50.421Z,1017.25
2017-07-16T00:26:03.055Z,1017.21
2017-07-16T00:27:15.328Z,1017.16
2017-07-16T00:28:27.607Z,1017.19
2017-07-16T00:29:39.663Z,1017.18
2017-07-16T00:30:51.685Z,1017.18
2017-07-16T00:32:04.237Z,1017.16
2017-07-16T00:33:16.156Z,1017.18
2017-07-16T00:34:28.803Z,1017.22
2017-07-16T00:35:40.781Z,1017.27
2017-07-16T00:36:53.453Z,1017.28
2017-07-16T00:38:05.762Z,1017.27
2017-07-16T00:39:18.357Z,1017.29
2017-07-16T00:40:30.972Z,1017.25
2017-07-16T00:41:42.689Z,1017.26
2017-07-16T00:42:54.996Z,1017.24
2017-07-16T00:44:06.694Z,1017.24
2017-07-16T00:45:18.905Z,1017.27
2017-07-16T00:46:31.533Z,1017.27
2017-07-16T00:47:43.812Z,1017.26
2017-07-16T00:48:56.402Z,1017.26
2017-07-16T00:50:08.995Z,1017.27
2017-07-16T00:51:21.308Z,1017.26
2017-07-16T00:52:33.553Z,1017.27
2017-07-16T00:53:45.588Z,1017.22
2017-07-16T00:54:58.180Z,1017.24
2017-07-16T00:56:10.455Z,1017.26
2017-07-16T00:57:22.745Z,1017.25
2017-07-16T00:58:34.972Z,1017.21
2017-07-16T00:59:47.212Z,1017.21
2017-07-16T01:00:59.486Z,1017.24
2017-07-16T01:02:11.787Z,1017.24
2017-07-16T01:03:24.378Z,1017.23
2017-07-16T01:04:37.021Z,1017.23
2017-07-16T01:05:49.308Z,1017.25
2017-07-16T01:07:01.614Z,1017.21
2017-07-16T01:08:13.558Z,1017.21
2017-07-16T01:09:26.162Z,1017.23
2017-07-16T01:10:38.778Z,1017.23
2017-07-16T01:11:51.034Z,1017.23
2017-07-16T01:13:03.368Z,1017.23
2017-07-16T01:14:15.265Z,1017.29
2017-07-16T01:15:27.859Z,1017.28
2017-07-16T01:16:39.886Z,1017.26
2017-07-16T01:17:52.540Z,1017.29
2017-07-16T01:19:05.134Z,1017.3
2017-07-16T01:20:17.125Z,1017.3
2017-07-16T01:21:29.742Z,1017.3
2017-07-16T01:22:42.363Z,1017.29
2017-07-16T01:23:54.336Z,1017.3
2017-07-16T01:25:06.888Z,1017.3
2017-07-16T01:26:19.497Z,1017.29
2017-07-16T01:27:32.072Z,1017.31
2017-07-16T01:28:44.953Z,1017.27
2017-07-16T01:29:57.549Z,1017.29
2017-07-16T01:31:09.914Z,1017.28
2017-07-16T01:32:22.508Z,1017.29
2017-07-16T01:33:34.825Z,1017.25
2017-07-16T01:34:47.393Z,1017.23
2017-07-16T01:35:59.741Z,1017.28
2017-07-16T01:37:12.035Z,1017.27
2017-07-16T01:38:24.620Z,1017.25
2017-07-16T01:39:37.183Z,1017.23
2017-07-16T01:40:49.528Z,1017.23
2017-07-16T01:42:01.800Z,1017.21
2017-07-16T01:43:14.135Z,1017.21
2017-07-16T01:44:26.474Z,1017.23
2017-07-16T01:45:38.792Z,1017.23
2017-07-16T01:46:51.394Z,1017.25
2017-07-16T01:48:03.687Z,1017.28
2017-07-16T01:49:15.972Z,1017.24
2017-07-16T01:50:28.571Z,1017.26
2017-07-16T01:51:41.111Z,1017.22
2017-07-16T01:52:53.708Z,1017.28
2017-07-16T01:54:05.384Z,1017.26
2017-07-16T01:55:17.027Z,1017.24
2017-07-16T01:56:29.653Z,1017.27
2017-07-16T01:57:42.241Z,1017.27
2017-07-16T01:58:54.844Z,1017.23
2017-07-16T02:00:06.784Z,1017.25
2017-07-16T02:01:18.436Z,1017.25
2017-07-16T02:02:30.726Z,1017.25
2017-07-16T02:03:43.301Z,1017.26
2017-07-16T02:04:55.609Z,1017.26
2017-07-16T02:06:07.548Z,1017.21
2017-07-16T02:07:20.108Z,1017.27
2017-07-16T02:08:32.080Z,1017.22
2017-07-16T02:09:44.381Z,1017.19
2017-07-16T02:10:56.652Z,1017.2
2017-07-16T02:12:09.223Z,1017.2
2017-07-16T02:13:21.517Z,1017.28
2017-07-16T02:14:33.564Z,1017.27
2017-07-16T02:15:45.516Z,1017.29
2017-07-16T02:16:58.078Z,1017.27
2017-07-16T02:18:10.370Z,1017.25
2017-07-16T02:19:22.647Z,1017.23
2017-07-16T02:20:34.677Z,1017.25
2017-07-16T02:21:47.285Z,1017.29
2017-07-16T02:22:59.586Z,1017.29
2017-07-16T02:24:10.939Z,1017.27
2017-07-16T02:25:22.598Z,1017.26
2017-07-16T02:26:35.260Z,1017.27
2017-07-16T02:27:47.157Z,1017.26
2017-07-16T02:28:58.792Z,1017.26
2017-07-16T02:30:11.358Z,1017.25
2017-07-16T02:31:23.638Z,1017.27
2017-07-16T02:32:35.657Z,1017.25
2017-07-16T02:33:47.598Z,1017.3
2017-07-16T02:35:00.191Z,1017.3
2017-07-16T02:36:12.497Z,1017.29
2017-07-16T02:37:24.832Z,1017.25
2017-07-16T02:38:37.157Z,1017.31
2017-07-16T02:39:49.104Z,1017.29
2017-07-16T02:41:01.345Z,1017.29
2017-07-16T02:42:13.952Z,1017.27
2017-07-16T02:43:26.225Z,1017.29
2017-07-16T02:44:38.779Z,1017.27
2017-07-16T02:45:51.069Z,1017.25
2017-07-16T02:47:03.330Z,1017.24
2017-07-16T02:48:15.321Z,1017.29
2017-07-16T02:49:27.592Z,1017.27
2017-07-16T02:50:39.911Z,1017.27
2017-07-16T02:51:52.256Z,1017.3
2017-07-16T02:53:04.571Z,1017.26
2017-07-16T02:54:16.826Z,1017.28
2017-07-16T02:55:29.107Z,1017.24
2017-07-16T02:56:41.773Z,1017.28
2017-07-16T02:57:54.405Z,1017.25
2017-07-16T02:59:06.662Z,1017.28
2017-07-16T03:00:19.338Z,1017.26
2017-07-16T03:01:31.966Z,1017.25
2017-07-16T03:02:44.605Z,1017.28
2017-07-16T03:03:56.890Z,1017.31
2017-07-16T03:05:08.842Z,1017.3
2017-07-16T03:06:21.124Z,1017.35
2017-07-16T03:07:33.727Z,1017.31
2017-07-16T03:08:46.391Z,1017.29
2017-07-16T03:09:58.969Z,1017.35
2017-07-16T03:11:11.317Z,1017.37
2017-07-16T03:12:23.595Z,1017.34
2017-07-16T03:13:35.863Z,1017.36
2017-07-16T03:14:48.496Z,1017.36
2017-07-16T03:16:01.081Z,1017.34
2017-07-16T03:17:13.331Z,1017.31
2017-07-16T03:18:24.999Z,1017.34
2017-07-16T03:19:37.596Z,1017.35
2017-07-16T03:20:49.208Z,1017.36
2017-07-16T03:22:01.454Z,1017.35
2017-07-16T03:23:14.050Z,1017.37
2017-07-16T03:24:24.773Z,1017.36
2017-07-16T03:25:37.071Z,1017.38
2017-07-16T03:26:49.013Z,1017.41
2017-07-16T03:28:01.852Z,1017.4
2017-07-16T03:29:14.160Z,1017.42
2017-07-16T03:30:26.750Z,1017.42
2017-07-16T03:31:39.377Z,1017.44
2017-07-16T03:32:52.006Z,1017.45
2017-07-16T03:34:04.657Z,1017.48
2017-07-16T03:35:16.909Z,1017.45
2017-07-16T03:36:29.185Z,1017.43
2017-07-16T03:37:41.875Z,1017.43
2017-07-16T03:38:54.150Z,1017.4
2017-07-16T03:40:06.762Z,1017.39
2017-07-16T03:41:19.379Z,1017.4
2017-07-16T03:42:31.940Z,1017.38
2017-07-16T03:43:44.258Z,1017.4
2017-07-16T03:44:56.805Z,1017.37
2017-07-16T03:46:09.370Z,1017.4
2017-07-16T03:47:21.361Z,1017.39
2017-07-16T03:48:33.964Z,1017.41
2017-07-16T03:49:46.766Z,1017.43
2017-07-16T03:50:58.998Z,1017.42
2017-07-16T03:52:11.612Z,1017.43
2017-07-16T03:53:23.915Z,1017.4
2017-07-16T03:54:36.147Z,1017.41
2017-07-16T03:55:48.367Z,1017.43
2017-07-16T03:57:00.362Z,1017.4
2017-07-16T03:58:13.041Z,1017.41
2017-07-16T03:59:25.002Z,1017.43
2017-07-16T04:00:36.617Z,1017.43
2017-07-16T04:01:48.239Z,1017.4
2017-07-16T04:03:00.797Z,1017.38
2017-07-16T04:04:12.772Z,1017.44
2017-07-16T04:05:25.435Z,1017.43
2017-07-16T04:06:38.070Z,1017.43
2017-07-16T04:07:50.363Z,1017.4
2017-07-16T04:09:02.647Z,1017.46
2017-07-16T04:10:14.593Z,1017.47
2017-07-16T04:11:27.171Z,1017.49
2017-07-16T04:12:39.460Z,1017.49
2017-07-16T04:13:51.458Z,1017.48
2017-07-16T04:15:03.399Z,1017.53
2017-07-16T04:16:15.975Z,1017.48
2017-07-16T04:17:28.606Z,1017.43
2017-07-16T04:18:40.593Z,1017.46
2017-07-16T04:19:52.860Z,1017.49
2017-07-16T04:21:05.506Z,1017.5
2017-07-16T04:22:18.351Z,1017.49
2017-07-16T04:23:30.298Z,1017.51
2017-07-16T04:24:42.639Z,1017.47
2017-07-16T04:25:54.913Z,1017.47
2017-07-16T04:27:07.526Z,1017.5
2017-07-16T04:28:19.442Z,1017.48
2017-07-16T04:29:32.051Z,1017.48
2017-07-16T04:30:44.024Z,1017.51
2017-07-16T04:31:56.333Z,1017.5
2017-07-16T04:33:08.666Z,1017.48
2017-07-16T04:34:21.283Z,1017.49
2017-07-16T04:35:33.557Z,1017.52
2017-07-16T04:36:45.558Z,1017.5
2017-07-16T04:37:57.798Z,1017.5
2017-07-16T04:39:10.418Z,1017.46
2017-07-16T04:40:22.678Z,1017.53
2017-07-16T04:41:34.710Z,1017.49
2017-07-16T04:42:47.337Z,1017.5
2017-07-16T04:43:59.907Z,1017.49
2017-07-16T04:45:12.179Z,1017.49
2017-07-16T04:46:24.470Z,1017.47
2017-07-16T04:47:37.156Z,1017.46
2017-07-16T04:48:49.769Z,1017.53
2017-07-16T04:50:02.435Z,1017.48
2017-07-16T04:51:13.136Z,1017.53
2017-07-16T04:52:25.084Z,1017.56
2017-07-16T04:53:37.055Z,1017.51
2017-07-16T04:54:49.444Z,1017.51
2017-07-16T04:56:01.697Z,1017.55
2017-07-16T04:57:14.015Z,1017.54
2017-07-16T04:58:26.628Z,1017.54
2017-07-16T04:59:38.972Z,1017.54
2017-07-16T05:00:51.262Z,1017.57
2017-07-16T05:02:03.872Z,1017.59
2017-07-16T05:03:16.542Z,1017.62
2017-07-16T05:04:29.173Z,1017.63
2017-07-16T05:05:41.446Z,1017.65
2017-07-16T05:06:53.752Z,1017.65
2017-07-16T05:08:05.983Z,1017.66
2017-07-16T05:09:18.268Z,1017.7
2017-07-16T05:10:30.516Z,1017.7
2017-07-16T05:11:43.129Z,1017.69
2017-07-16T05:12:55.438Z,1017.65
2017-07-16T05:14:07.089Z,1017.63
2017-07-16T05:15:19.405Z,1017.7
2017-07-16T05:16:31.719Z,1017.71
2017-07-16T05:17:44.315Z,1017.67
2017-07-16T05:18:56.934Z,1017.66
2017-07-16T05:20:08.925Z,1017.66
2017-07-16T05:21:21.490Z,1017.65
2017-07-16T05:22:34.159Z,1017.7
2017-07-16T05:23:45.555Z,1017.71
2017-07-16T05:24:57.532Z,1017.74
2017-07-16T05:26:09.487Z,1017.76
2017-07-16T05:27:22.068Z,1017.76
2017-07-16T05:28:34.703Z,1017.73
2017-07-16T05:29:47.332Z,1017.68
2017-07-16T05:30:59.599Z,1017.69
2017-07-16T05:32:12.168Z,1017.71
2017-07-16T05:33:24.447Z,1017.7
2017-07-16T05:34:37.043Z,1017.74
2017-07-16T05:35:49.661Z,1017.71
2017-07-16T05:37:01.959Z,1017.77
2017-07-16T05:38:14.253Z,1017.78
2017-07-16T05:39:26.217Z,1017.79
2017-07-16T05:40:38.817Z,1017.78
2017-07-16T05:41:51.411Z,1017.85
2017-07-16T05:43:03.710Z,1017.85
2017-07-16T05:44:16.361Z,1017.87
2017-07-16T05:45:29.020Z,1017.87
2017-07-16T05:46:41.293Z,1017.88
2017-07-16T05:47:53.329Z,1017.9
2017-07-16T05:49:05.317Z,1017.94
2017-07-16T05:50:16.991Z,1017.91
2017-07-16T05:51:29.601Z,1017.95
2017-07-16T05:52:42.283Z,1017.94
2017-07-16T05:53:54.946Z,1017.93
2017-07-16T05:55:07.207Z,1017.91
2017-07-16T05:56:19.842Z,1017.91
2017-07-16T05:57:32.382Z,1017.94
2017-07-16T05:58:44.661Z,1017.93
2017-07-16T05:59:56.999Z,1017.98
2017-07-16T06:01:09.579Z,1017.95
2017-07-16T06:02:22.164Z,1017.97
2017-07-16T06:03:34.765Z,1017.96
2017-07-16T06:04:47.057Z,1017.95
2017-07-16T06:05:59.679Z,1017.94
2017-07-16T06:07:11.673Z,1018.02
2017-07-16T06:08:23.650Z,1018.03
2017-07-16T06:09:35.993Z,1018.04
2017-07-16T06:10:48.259Z,1018.05
2017-07-16T06:11:59.598Z,1018.03
2017-07-16T06:13:11.232Z,1018.04
2017-07-16T06:14:23.239Z,1018.04
2017-07-16T06:15:35.193Z,1018.06
2017-07-16T06:16:47.766Z,1018.09
2017-07-16T06:17:59.989Z,1018.14
2017-07-16T06:19:11.994Z,1018.12
2017-07-16T06:20:24.610Z,1018.12
2017-07-16T06:21:37.251Z,1018.16
2017-07-16T06:22:49.554Z,1018.13
2017-07-16T06:24:01.521Z,1018.18
2017-07-16T06:25:12.870Z,1018.2
2017-07-16T06:26:25.482Z,1018.22
2017-07-16T06:27:38.070Z,1018.19
2017-07-16T06:28:50.650Z,1018.19
2017-07-16T06:30:03.020Z,1018.22
2017-07-16T06:31:14.364Z,1018.26
2017-07-16T06:32:26.644Z,1018.27
2017-07-16T06:33:38.635Z,1018.28
2017-07-16T06:34:50.596Z,1018.34
2017-07-16T06:36:02.928Z,1018.29
2017-07-16T06:37:15.541Z,1018.25
2017-07-16T06:38:28.144Z,1018.27
2017-07-16T06:39:40.436Z,1018.23
2017-07-16T06:40:53.036Z,1018.25
2017-07-16T06:42:05.327Z,1018.21
2017-07-16T06:43:17.313Z,1018.27
2017-07-16T06:44:29.637Z,1018.25
2017-07-16T06:45:42.202Z,1018.3
2017-07-16T06:46:53.820Z,1018.31
2017-07-16T06:48:06.425Z,1018.27
2017-07-16T06:49:19.031Z,1018.31
2017-07-16T06:50:31.274Z,1018.34
2017-07-16T06:51:43.221Z,1018.29
2017-07-16T06:52:55.769Z,1018.35
2017-07-16T06:54:07.712Z,1018.35
2017-07-16T06:55:20.001Z,1018.36
2017-07-16T06:56:32.259Z,1018.28
2017-07-16T06:57:44.927Z,1018.32
2017-07-16T06:58:57.249Z,1018.27
2017-07-16T07:00:09.265Z,1018.28
2017-07-16T07:01:21.590Z,1018.35
2017-07-16T07:02:33.913Z,1018.32
2017-07-16T07:03:45.878Z,1018.43
2017-07-16T07:04:57.925Z,1018.39
2017-07-16T07:06:10.503Z,1018.49
2017-07-16T07:07:22.131Z,1018.55
2017-07-16T07:08:34.127Z,1018.54
2017-07-16T07:09:46.398Z,1018.5
2017-07-16T07:10:57.130Z,1018.5
2017-07-16T07:12:09.121Z,1018.49
2017-07-16T07:13:21.700Z,1018.51
2017-07-16T07:14:34.299Z,1018.5
2017-07-16T07:15:46.899Z,1018.44
2017-07-16T07:16:58.899Z,1018.53
2017-07-16T07:18:11.222Z,1018.5
2017-07-16T07:19:23.602Z,1018.51
2017-07-16T07:20:35.923Z,1018.56
2017-07-16T07:21:48.596Z,1018.53
2017-07-16T07:23:00.926Z,1018.57
2017-07-16T07:24:12.638Z,1018.57
2017-07-16T07:25:24.649Z,1018.5
2017-07-16T07:26:36.923Z,1018.47
2017-07-16T07:27:49.249Z,1018.47
2017-07-16T07:29:01.553Z,1018.44
2017-07-16T07:30:14.202Z,1018.43
2017-07-16T07:31:26.779Z,1018.4
2017-07-16T07:32:39.318Z,1018.42
2017-07-16T07:33:51.678Z,1018.4
2017-07-16T07:35:03.623Z,1018.39
2017-07-16T07:36:15.934Z,1018.44
2017-07-16T07:37:28.254Z,1018.46
2017-07-16T07:38:39.962Z,1018.45
2017-07-16T07:39:51.890Z,1018.46
2017-07-16T07:41:04.536Z,1018.5
2017-07-16T07:42:16.883Z,1018.46
2017-07-16T07:43:29.164Z,1018.49
2017-07-16T07:44:41.444Z,1018.53
2017-07-16T07:45:53.424Z,1018.49
2017-07-16T07:47:05.102Z,1018.45
2017-07-16T07:48:17.685Z,1018.44
2017-07-16T07:49:30.256Z,1018.42
2017-07-16T07:50:42.572Z,1018.45
2017-07-16T07:51:54.896Z,1018.37
2017-07-16T07:53:07.496Z,1018.38
2017-07-16T07:54:19.776Z,1018.42
2017-07-16T07:55:32.091Z,1018.39
2017-07-16T07:56:44.434Z,1018.44
2017-07-16T07:57:56.750Z,1018.38
2017-07-16T07:59:09.352Z,1018.39
2017-07-16T08:00:21.640Z,1018.37
2017-07-16T08:01:33.938Z,1018.37
2017-07-16T08:02:45.967Z,1018.35
2017-07-16T08:03:58.572Z,1018.37
2017-07-16T08:05:10.533Z,1018.29
2017-07-16T08:06:23.102Z,1018.32
2017-07-16T08:07:35.744Z,1018.32
2017-07-16T08:08:48.012Z,1018.35
2017-07-16T08:10:00.609Z,1018.32
2017-07-16T08:11:12.622Z,1018.35
2017-07-16T08:12:25.247Z,1018.4
2017-07-16T08:13:37.550Z,1018.38
2017-07-16T08:14:49.581Z,1018.42
2017-07-16T08:16:02.203Z,1018.42
2017-07-16T08:17:14.445Z,1018.48
2017-07-16T08:18:27.054Z,1018.4
2017-07-16T08:19:39.356Z,1018.39
2017-07-16T08:20:51.934Z,1018.42
2017-07-16T08:22:03.610Z,1018.43
2017-07-16T08:23:14.696Z,1018.41
2017-07-16T08:24:25.789Z,1018.42
2017-07-16T08:25:38.137Z,1018.42
2017-07-16T08:26:50.433Z,1018.4
2017-07-16T08:28:02.817Z,1018.37
2017-07-16T08:29:15.128Z,1018.37
2017-07-16T08:30:27.498Z,1018.36
2017-07-16T08:31:40.091Z,1018.41
2017-07-16T08:32:52.670Z,1018.43
2017-07-16T08:34:04.632Z,1018.44
2017-07-16T08:35:16.647Z,1018.5
2017-07-16T08:36:28.922Z,1018.46
2017-07-16T08:37:41.186Z,1018.47
2017-07-16T08:38:53.482Z,1018.45
2017-07-16T08:40:06.010Z,1018.4
2017-07-16T08:41:18.641Z,1018.4
2017-07-16T08:42:31.480Z,1018.4
2017-07-16T08:43:43.791Z,1018.34
2017-07-16T08:44:56.113Z,1018.31
2017-07-16T08:46:08.132Z,1018.3
2017-07-16T08:47:20.129Z,1018.3
2017-07-16T08:48:32.104Z,1018.29
2017-07-16T08:49:44.745Z,1018.28
2017-07-16T08:50:56.743Z,1018.32
2017-07-16T08:52:09.077Z,1018.28
2017-07-16T08:53:21.688Z,1018.27
2017-07-16T08:54:34.034Z,1018.25
2017-07-16T08:55:46.079Z,1018.22
2017-07-16T08:56:58.014Z,1018.28
2017-07-16T08:58:10.065Z,1018.26
2017-07-16T08:59:22.729Z,1018.33
2017-07-16T09:00:35.331Z,1018.33
2017-07-16T09:01:47.690Z,1018.33
2017-07-16T09:03:00.327Z,1018.34
2017-07-16T09:04:12.340Z,1018.35
2017-07-16T09:05:24.347Z,1018.37
2017-07-16T09:06:36.664Z,1018.41
2017-07-16T09:07:48.670Z,1018.36
2017-07-16T09:09:00.737Z,1018.34
2017-07-16T09:10:12.981Z,1018.32
2017-07-16T09:11:25.597Z,1018.28
2017-07-16T09:12:37.591Z,1018.3
2017-07-16T09:13:49.542Z,1018.35
2017-07-16T09:15:01.533Z,1018.31
2017-07-16T09:16:13.771Z,1018.38
2017-07-16T09:17:26.020Z,1018.34
2017-07-16T09:18:38.310Z,1018.33
2017-07-16T09:19:49.974Z,1018.27
2017-07-16T09:21:02.640Z,1018.2
2017-07-16T09:22:14.964Z,1018.21
2017-07-16T09:23:26.629Z,1018.23
2017-07-16T09:24:37.980Z,1018.18
2017-07-16T09:25:50.252Z,1018.15
2017-07-16T09:27:02.222Z,1018.16
2017-07-16T09:28:14.499Z,1018.13
2017-07-16T09:29:26.835Z,1018.13
2017-07-16T09:30:39.434Z,1018.13
2017-07-16T09:31:51.734Z,1018.17
2017-07-16T09:33:03.682Z,1018.13
2017-07-16T09:34:15.669Z,1018.16
2017-07-16T09:35:28.291Z,1018.11
2017-07-16T09:36:40.887Z,1018.11
2017-07-16T09:37:53.521Z,1018.08
2017-07-16T09:39:05.830Z,1018.04
2017-07-16T09:40:18.114Z,1018.09
2017-07-16T09:41:30.413Z,1018.12
2017-07-16T09:42:42.738Z,1018.17
2017-07-16T09:43:55.337Z,1018.09
2017-07-16T09:45:07.362Z,1018.06
2017-07-16T09:46:19.369Z,1018.01
2017-07-16T09:47:32.245Z,1017.97
2017-07-16T09:48:44.279Z,1017.96
2017-07-16T09:49:56.677Z,1017.87
2017-07-16T09:51:09.293Z,1017.92
2017-07-16T09:52:21.916Z,1017.86
2017-07-16T09:53:34.547Z,1017.87
2017-07-16T09:54:46.857Z,1017.89
2017-07-16T09:55:59.487Z,1017.79
2017-07-16T09:57:11.524Z,1017.74
2017-07-16T09:58:23.524Z,1017.65
2017-07-16T09:59:35.812Z,1017.67
2017-07-16T10:00:48.144Z,1017.67
2017-07-16T10:02:00.135Z,1017.67
2017-07-16T10:03:12.811Z,1017.78
2017-07-16T10:04:25.396Z,1017.85
2017-07-16T10:05:37.970Z,1017.85
2017-07-16T10:06:49.677Z,1017.79
2017-07-16T10:08:01.340Z,1017.66
2017-07-16T10:09:13.367Z,1017.71
2017-07-16T10:10:25.654Z,1017.81
2017-07-16T10:11:37.941Z,1017.89
2017-07-16T10:12:50.288Z,1017.85
2017-07-16T10:14:02.861Z,1017.77
2017-07-16T10:15:14.500Z,1017.74
2017-07-16T10:16:26.832Z,1017.81
2017-07-16T10:17:39.498Z,1017.83
2017-07-16T10:18:50.244Z,1017.88
2017-07-16T10:20:02.207Z,1017.92
2017-07-16T10:21:14.211Z,1017.87
2017-07-16T10:22:26.782Z,1017.84
2017-07-16T10:23:38.445Z,1017.83
2017-07-16T10:24:50.833Z,1017.84
2017-07-16T10:26:03.177Z,1017.82
2017-07-16T10:27:14.857Z,1017.82
2017-07-16T10:28:27.416Z,1017.8
2017-07-16T10:29:39.711Z,1017.81
2017-07-16T10:30:52.369Z,1017.77
2017-07-16T10:32:04.375Z,1017.77
2017-07-16T10:33:17.055Z,1017.7
2017-07-16T10:34:29.652Z,1017.68
2017-07-16T10:35:42.310Z,1017.65
2017-07-16T10:36:54.936Z,1017.7
2017-07-16T10:38:06.602Z,1017.69
2017-07-16T10:39:18.346Z,1017.67
2017-07-16T10:40:30.970Z,1017.63
2017-07-16T10:41:43.251Z,1017.59
2017-07-16T10:42:55.586Z,1017.6
2017-07-16T10:44:08.170Z,1017.66
2017-07-16T10:45:20.157Z,1017.72
2017-07-16T10:46:32.744Z,1017.69
2017-07-16T10:47:45.026Z,1017.68
2017-07-16T10:48:57.638Z,1017.69
2017-07-16T10:50:09.298Z,1017.6
2017-07-16T10:51:20.640Z,1017.65
2017-07-16T10:52:32.998Z,1017.6
2017-07-16T10:53:45.350Z,1017.59
2017-07-16T10:54:57.965Z,1017.65
2017-07-16T10:56:10.210Z,1017.64
2017-07-16T10:57:22.152Z,1017.61
2017-07-16T10:58:34.450Z,1017.57
2017-07-16T10:59:47.066Z,1017.57
2017-07-16T11:00:59.393Z,1017.59
2017-07-16T11:02:11.627Z,1017.59
2017-07-16T11:03:24.175Z,1017.54
2017-07-16T11:04:36.782Z,1017.54
2017-07-16T11:05:49.062Z,1017.54
2017-07-16T11:07:01.674Z,1017.62
2017-07-16T11:08:13.968Z,1017.56
2017-07-16T11:09:26.558Z,1017.55
2017-07-16T11:10:38.542Z,1017.52
2017-07-16T11:11:50.805Z,1017.43
2017-07-16T11:13:02.817Z,1017.46
2017-07-16T11:14:15.081Z,1017.46
2017-07-16T11:15:27.355Z,1017.44
2017-07-16T11:16:39.305Z,1017.49
2017-07-16T11:17:51.573Z,1017.46
2017-07-16T11:19:02.968Z,1017.49
2017-07-16T11:20:15.001Z,1017.49
2017-07-16T11:21:27.269Z,1017.53
2017-07-16T11:22:39.607Z,1017.47
2017-07-16T11:23:50.647Z,1017.4
2017-07-16T11:25:02.954Z,1017.38
2017-07-16T11:26:14.960Z,1017.39
2017-07-16T11:27:26.892Z,1017.38
2017-07-16T11:28:39.188Z,1017.39
2017-07-16T11:29:50.605Z,1017.38
2017-07-16T11:31:02.865Z,1017.36
2017-07-16T11:32:15.179Z,1017.39
2017-07-16T11:33:27.453Z,1017.41
2017-07-16T11:34:39.764Z,1017.39
2017-07-16T11:35:51.745Z,1017.37
2017-07-16T11:37:04.388Z,1017.36
2017-07-16T11:38:16.685Z,1017.27
2017-07-16T11:39:28.997Z,1017.27
2017-07-16T11:40:41.296Z,1017.31
2017-07-16T11:41:53.602Z,1017.3
2017-07-16T11:43:05.014Z,1017.27
2017-07-16T11:44:16.958Z,1017.23
2017-07-16T11:45:28.957Z,1017.23
2017-07-16T11:46:41.301Z,1017.2
2017-07-16T11:47:53.584Z,1017.22
2017-07-16T11:49:05.598Z,1017.25
2017-07-16T11:50:17.969Z,1017.22
2017-07-16T11:51:30.262Z,1017.17
2017-07-16T11:52:42.870Z,1017.13
2017-07-16T11:53:55.497Z,1017.09
2017-07-16T11:55:07.743Z,1017
2017-07-16T11:56:19.762Z,1016.94
2017-07-16T11:57:32.070Z,1016.9
2017-07-16T11:58:44.784Z,1016.83
2017-07-16T11:59:57.367Z,1016.84
2017-07-16T12:01:09.341Z,1016.83
2017-07-16T12:02:21.959Z,1016.81
2017-07-16T12:03:34.557Z,1016.79
2017-07-16T12:04:46.817Z,1016.78
2017-07-16T12:05:59.136Z,1016.8
2017-07-16T12:07:11.695Z,1016.82
2017-07-16T12:08:24.326Z,1016.85
2017-07-16T12:09:36.636Z,1016.86
2017-07-16T12:10:48.968Z,1016.94
2017-07-16T12:12:01.054Z,1016.91
2017-07-16T12:13:13.056Z,1016.96
2017-07-16T12:14:25.057Z,1016.96
2017-07-16T12:15:37.346Z,1017.02
2017-07-16T12:16:48.381Z,1017
2017-07-16T12:18:01.070Z,1017.04
2017-07-16T12:19:13.010Z,1017.04
2017-07-16T12:20:25.326Z,1017.05
2017-07-16T12:21:37.926Z,1017.07
2017-07-16T12:22:50.514Z,1017.06
2017-07-16T12:24:02.770Z,1017.11
2017-07-16T12:25:15.044Z,1017.09
2017-07-16T12:26:27.335Z,1017.08
2017-07-16T12:27:39.660Z,1017.08
2017-07-16T12:28:52.302Z,1017.06
2017-07-16T12:30:04.901Z,1017.08
2017-07-16T12:31:17.206Z,1017.05
2017-07-16T12:32:29.515Z,1017.02
2017-07-16T12:33:41.814Z,1017.05
2017-07-16T12:34:53.835Z,1017.04
2017-07-16T12:36:05.524Z,1017.03
2017-07-16T12:37:17.483Z,1017.01
2017-07-16T12:38:29.855Z,1016.98
2017-07-16T12:39:42.177Z,1016.96
2017-07-16T12:40:54.142Z,1016.96
2017-07-16T12:42:06.133Z,1016.95
2017-07-16T12:43:18.135Z,1016.99
2017-07-16T12:44:30.754Z,1016.94
2017-07-16T12:45:43.077Z,1016.9
2017-07-16T12:46:55.687Z,1016.89
2017-07-16T12:48:08.345Z,1016.91
2017-07-16T12:49:20.961Z,1016.85
2017-07-16T12:50:33.611Z,1016.82
2017-07-16T12:51:45.868Z,1016.86
2017-07-16T12:52:57.816Z,1016.83
2017-07-16T12:54:10.129Z,1016.83
2017-07-16T12:55:22.163Z,1016.8
2017-07-16T12:56:34.397Z,1016.73
2017-07-16T12:57:46.740Z,1016.7
2017-07-16T12:58:59.052Z,1016.72
2017-07-16T13:00:11.081Z,1016.68
2017-07-16T13:01:23.086Z,1016.65
2017-07-16T13:02:35.683Z,1016.64
2017-07-16T13:03:48.339Z,1016.58
2017-07-16T13:05:00.031Z,1016.57
2017-07-16T13:06:12.332Z,1016.59
2017-07-16T13:07:24.615Z,1016.59
2017-07-16T13:08:36.621Z,1016.55
2017-07-16T13:09:49.253Z,1016.57
2017-07-16T13:11:01.931Z,1016.62
2017-07-16T13:12:14.509Z,1016.64
2017-07-16T13:13:26.480Z,1016.65
2017-07-16T13:14:38.462Z,1016.67
2017-07-16T13:15:50.774Z,1016.67
2017-07-16T13:17:02.769Z,1016.66
2017-07-16T13:18:15.069Z,1016.63
2017-07-16T13:19:27.656Z,1016.59
2017-07-16T13:20:39.880Z,1016.61
2017-07-16T13:21:52.252Z,1016.6
2017-07-16T13:23:04.871Z,1016.58
2017-07-16T13:24:16.242Z,1016.54
2017-07-16T13:25:28.507Z,1016.52
2017-07-16T13:26:40.833Z,1016.52
2017-07-16T13:27:53.190Z,1016.55
2017-07-16T13:29:05.169Z,1016.58
2017-07-16T13:30:17.412Z,1016.59
2017-07-16T13:31:29.398Z,1016.53
2017-07-16T13:32:41.978Z,1016.57
2017-07-16T13:33:54.237Z,1016.57
2017-07-16T13:35:06.555Z,1016.49
2017-07-16T13:36:17.588Z,1016.42
2017-07-16T13:37:28.953Z,1016.43
2017-07-16T13:38:40.623Z,1016.46
2017-07-16T13:39:52.344Z,1016.41
2017-07-16T13:41:04.672Z,1016.39
2017-07-16T13:42:16.055Z,1016.35
2017-07-16T13:43:28.653Z,1016.37
2017-07-16T13:44:40.671Z,1016.37
2017-07-16T13:45:52.960Z,1016.38
2017-07-16T13:47:05.264Z,1016.35
2017-07-16T13:48:17.895Z,1016.33
2017-07-16T13:49:29.857Z,1016.29
2017-07-16T13:50:42.169Z,1016.27
2017-07-16T13:51:54.728Z,1016.23
2017-07-16T13:53:06.702Z,1016.23
2017-07-16T13:54:19.020Z,1016.13
2017-07-16T13:55:31.279Z,1016.15
2017-07-16T13:56:43.525Z,1016.12
2017-07-16T13:57:55.510Z,1016.04
2017-07-16T13:59:07.848Z,1016.06
2017-07-16T14:00:20.439Z,1016.04
2017-07-16T14:01:32.665Z,1016.06
2017-07-16T14:02:44.924Z,1016.05
2017-07-16T14:03:57.551Z,1016.04
2017-07-16T14:05:09.853Z,1016.09
2017-07-16T14:06:22.576Z,1016.05
2017-07-16T14:07:34.621Z,1016.02
2017-07-16T14:08:47.277Z,1016.05
2017-07-16T14:09:59.884Z,1016.05
2017-07-16T14:11:11.912Z,1016.05
2017-07-16T14:12:24.241Z,1016.01
2017-07-16T14:13:35.575Z,1016.04
2017-07-16T14:14:48.135Z,1016.1
2017-07-16T14:16:00.439Z,1016.12
2017-07-16T14:17:12.087Z,1016.11
2017-07-16T14:18:24.384Z,1016.14
2017-07-16T14:19:36.967Z,1016.12
2017-07-16T14:20:49.578Z,1016.08
2017-07-16T14:22:02.179Z,1016.06
2017-07-16T14:23:13.861Z,1016.08
2017-07-16T14:24:24.895Z,1016.07
2017-07-16T14:25:36.833Z,1016.04
2017-07-16T14:26:49.180Z,1016.08
2017-07-16T14:28:00.775Z,1016.01
2017-07-16T14:29:13.408Z,1016.04
2017-07-16T14:30:26.019Z,1016.06
2017-07-16T14:31:38.271Z,1016.08
2017-07-16T14:32:50.569Z,1016.01
2017-07-16T14:34:02.582Z,1016.03
2017-07-16T14:35:14.930Z,1016.01
2017-07-16T14:36:27.280Z,1015.97
2017-07-16T14:37:39.220Z,1015.97